createdAt,value
2017-10-25T00:00:34.900Z,99227.06
2017-10-25T00:03:01.340Z,99223.55
2017-10-25T00:05:27.785Z,99235.65
2017-10-25T00:07:54.232Z,99242.78
2017-10-25T00:10:20.679Z,99247.06
2017-10-25T00:12:47.105Z,99250.00
2017-10-25T00:15:13.538Z,99255.52
2017-10-25T00:17:39.981Z,99259.97
2017-10-25T00:20:06.414Z,99267.21
2017-10-25T00:22:32.843Z,99273.24
2017-10-25T00:24:59.287Z,99270.04
2017-10-25T00:27:25.712Z,99272.45
2017-10-25T00:29:52.149Z,99271.74
2017-10-25T00:32:18.582Z,99272.30
2017-10-25T00:34:45.024Z,99278.60
2017-10-25T00:37:11.450Z,99279.84
2017-10-25T00:39:37.884Z,99266.81
2017-10-25T00:42:04.320Z,99278.21
2017-10-25T00:44:30.754Z,99274.74
2017-10-25T00:46:57.198Z,99275.53
2017-10-25T00:49:23.623Z,99275.27
2017-10-25T00:51:50.058Z,99279.84
2017-10-25T00:54:16.497Z,99275.57
2017-10-25T00:56:42.927Z,99284.14
2017-10-25T00:59:09.364Z,99289.25
2017-10-25T01:01:35.767Z,99294.88
2017-10-25T01:04:02.103Z,99293.67
2017-10-25T01:06:28.565Z,99294.61
2017-10-25T01:08:55.029Z,99293.92
2017-10-25T01:11:22.151Z,99283.99
2017-10-25T01:13:48.586Z,99294.02
2017-10-25T01:16:14.991Z,99307.14
2017-10-25T01:18:41.331Z,99315.58
2017-10-25T01:21:07.796Z,99311.41
2017-10-25T01:23:34.230Z,99327.22
2017-10-25T01:26:00.611Z,99324.97
2017-10-25T01:28:27.091Z,99334.11
2017-10-25T01:30:53.628Z,99339.19
2017-10-25T01:33:20.072Z,99344.00
2017-10-25T01:35:46.470Z,99348.55
2017-10-25T01:38:12.915Z,99343.97
2017-10-25T01:40:40.060Z,99347.44
2017-10-25T01:43:06.459Z,99355.59
2017-10-25T01:45:32.963Z,99363.73
2017-10-25T01:47:59.391Z,99363.35
2017-10-25T01:50:25.935Z,99369.05
2017-10-25T01:52:52.361Z,99367.38
2017-10-25T01:55:18.805Z,99370.89
2017-10-25T01:57:45.232Z,99373.59
2017-10-25T02:00:11.665Z,99376.12
2017-10-25T02:02:38.101Z,99381.91
2017-10-25T02:05:04.545Z,99384.34
2017-10-25T02:07:30.970Z,99385.13
2017-10-25T02:09:57.405Z,99391.55
2017-10-25T02:12:23.847Z,99408.03
2017-10-25T02:14:50.278Z,99402.94
2017-10-25T02:17:16.710Z,99403.37
2017-10-25T02:19:43.163Z,99406.20
2017-10-25T02:22:09.578Z,99414.61
2017-10-25T02:24:36.022Z,99428.58
2017-10-25T02:27:03.164Z,99428.17
2017-10-25T02:29:29.611Z,99426.41
2017-10-25T02:31:56.036Z,99434.86
2017-10-25T02:34:22.445Z,99437.52
2017-10-25T02:36:48.907Z,99440.56
2017-10-25T02:39:15.349Z,99437.87
2017-10-25T02:41:41.784Z,99441.75
2017-10-25T02:44:08.218Z,99448.44
2017-10-25T02:46:34.644Z,99446.30
2017-10-25T02:49:01.087Z,99449.02
2017-10-25T02:51:27.517Z,99451.03
2017-10-25T02:53:53.948Z,99455.02
2017-10-25T02:56:20.381Z,99458.83
2017-10-25T02:58:46.782Z,99462.34
2017-10-25T03:01:13.149Z,99457.02
2017-10-25T03:03:39.584Z,99459.13
2017-10-25T03:06:06.019Z,99465.94
2017-10-25T03:08:32.455Z,99469.84
2017-10-25T03:10:58.888Z,99468.76
2017-10-25T03:13:25.323Z,99474.12
2017-10-25T03:15:51.758Z,99482.28
2017-10-25T03:18:18.193Z,99479.84
2017-10-25T03:20:44.628Z,99482.52
2017-10-25T03:23:11.154Z,99481.27
2017-10-25T03:25:37.599Z,99484.73
2017-10-25T03:28:04.037Z,99489.41
2017-10-25T03:30:30.437Z,99491.37
2017-10-25T03:32:56.904Z,99499.58
2017-10-25T03:35:24.269Z,99498.53
2017-10-25T03:37:50.695Z,99501.48
2017-10-25T03:40:17.138Z,99498.35
2017-10-25T03:42:43.565Z,99501.56
2017-10-25T03:45:10.013Z,99502.16
2017-10-25T03:47:36.435Z,99507.05
2017-10-25T03:50:02.869Z,99507.95
2017-10-25T03:52:30.085Z,99506.20
2017-10-25T03:54:56.527Z,99519.72
2017-10-25T03:57:22.991Z,99519.94
2017-10-25T03:59:49.426Z,99516.94
2017-10-25T04:02:15.870Z,99525.91
2017-10-25T04:04:42.296Z,99525.93
2017-10-25T04:07:08.733Z,99525.74
2017-10-25T04:09:35.064Z,99532.53
2017-10-25T04:12:01.504Z,99535.59
2017-10-25T04:14:27.933Z,99535.86
2017-10-25T04:16:54.392Z,99539.52
2017-10-25T04:19:20.802Z,99548.05
2017-10-25T04:21:47.239Z,99554.89
2017-10-25T04:24:13.680Z,99560.08
2017-10-25T04:26:40.115Z,99560.92
2017-10-25T04:29:06.545Z,99567.20
2017-10-25T04:31:33.683Z,99571.06
2017-10-25T04:34:00.162Z,99576.14
2017-10-25T04:36:26.562Z,99584.36
2017-10-25T04:38:53.817Z,99586.08
2017-10-25T04:41:20.262Z,99595.49
2017-10-25T04:43:46.699Z,99598.52
2017-10-25T04:46:13.123Z,99611.52
2017-10-25T04:48:39.557Z,99613.78
2017-10-25T04:51:05.992Z,99623.66
2017-10-25T04:53:32.643Z,99625.31
2017-10-25T04:55:59.065Z,99634.81
2017-10-25T04:58:25.602Z,99642.66
2017-10-25T05:00:52.046Z,99648.19
2017-10-25T05:03:18.582Z,99646.45
2017-10-25T05:05:45.009Z,99661.98
2017-10-25T05:08:11.443Z,99659.11
2017-10-25T05:10:37.888Z,99657.94
2017-10-25T05:13:04.313Z,99660.41
2017-10-25T05:15:30.750Z,99660.55
2017-10-25T05:17:57.191Z,99667.99
2017-10-25T05:20:23.617Z,99667.31
2017-10-25T05:22:50.060Z,99671.25
2017-10-25T05:25:16.426Z,99677.05
2017-10-25T05:27:42.820Z,99680.31
2017-10-25T05:30:09.255Z,99688.92
2017-10-25T05:32:35.689Z,99690.56
2017-10-25T05:35:02.123Z,99703.77
2017-10-25T05:37:28.558Z,99701.91
2017-10-25T05:39:55.301Z,99710.31
2017-10-25T05:42:21.847Z,99718.72
2017-10-25T05:44:48.589Z,99714.54
2017-10-25T05:47:16.846Z,99722.64
2017-10-25T05:49:43.397Z,99719.73
2017-10-25T05:52:10.393Z,99711.42
2017-10-25T05:54:36.882Z,99719.39
2017-10-25T05:57:04.079Z,99725.68
2017-10-25T05:59:30.874Z,99726.94
2017-10-25T06:01:57.719Z,99741.58
2017-10-25T06:04:24.163Z,99745.05
2017-10-25T06:06:50.597Z,99754.80
2017-10-25T06:09:17.534Z,99762.03
2017-10-25T06:11:44.081Z,99771.67
2017-10-25T06:14:10.619Z,99776.73
2017-10-25T06:16:37.429Z,99786.39
2017-10-25T06:19:03.897Z,99771.97
2017-10-25T06:21:30.323Z,99766.81
2017-10-25T06:23:57.074Z,99759.36
2017-10-25T06:26:23.611Z,99760.09
2017-10-25T06:28:50.139Z,99761.76
2017-10-25T06:31:16.976Z,99767.95
2017-10-25T06:33:43.521Z,99782.61
2017-10-25T06:36:10.059Z,99793.53
2017-10-25T06:38:36.783Z,99805.08
2017-10-25T06:41:03.138Z,99816.06
2017-10-25T06:43:29.773Z,99826.78
2017-10-25T06:45:56.312Z,99832.75
2017-10-25T06:48:22.752Z,99822.16
2017-10-25T06:50:49.169Z,99825.55
2017-10-25T06:53:16.227Z,99824.68
2017-10-25T06:55:43.176Z,99823.20
2017-10-25T06:58:09.611Z,99823.72
2017-10-25T07:00:36.392Z,99827.17
2017-10-25T07:03:03.095Z,99822.81
2017-10-25T07:05:30.066Z,99831.74
2017-10-25T07:07:56.781Z,99832.22
2017-10-25T07:10:23.115Z,99833.23
2017-10-25T07:12:49.651Z,99836.77
2017-10-25T07:15:16.381Z,99840.03
2017-10-25T07:17:42.840Z,99846.16
2017-10-25T07:20:09.376Z,99853.55
2017-10-25T07:22:35.986Z,99857.41
2017-10-25T07:25:02.480Z,99869.41
2017-10-25T07:27:28.818Z,99867.48
2017-10-25T07:29:55.207Z,99854.64
2017-10-25T07:32:24.316Z,99833.69
2017-10-25T07:34:57.809Z,99827.05
2017-10-25T07:37:24.445Z,99834.79
2017-10-25T07:39:51.277Z,99842.90
2017-10-25T07:42:17.825Z,99844.28
2017-10-25T07:44:44.269Z,99847.45
2017-10-25T07:47:11.965Z,99852.27
2017-10-25T07:49:38.403Z,99857.31
2017-10-25T07:52:06.744Z,99863.66
2017-10-25T07:54:37.967Z,99869.02
2017-10-25T07:57:04.423Z,99871.42
2017-10-25T07:59:30.865Z,99866.98
2017-10-25T08:01:57.635Z,99870.87
2017-10-25T08:04:32.639Z,99880.24
2017-10-25T08:06:59.381Z,99883.59
2017-10-25T08:09:26.332Z,99894.66
2017-10-25T08:11:56.235Z,99885.94
2017-10-25T08:14:22.789Z,99886.75
2017-10-25T08:16:49.610Z,99885.41
2017-10-25T08:19:16.056Z,99888.63
2017-10-25T08:21:42.491Z,99889.94
2017-10-25T08:24:09.130Z,99884.47
2017-10-25T08:26:35.872Z,99879.87
2017-10-25T08:29:02.450Z,99874.58
2017-10-25T08:31:30.138Z,99874.42
2017-10-25T08:33:56.579Z,99877.52
2017-10-25T08:36:22.995Z,99881.80
2017-10-25T08:38:49.587Z,99879.61
2017-10-25T08:41:16.025Z,99887.33
2017-10-25T08:43:42.598Z,99897.53
2017-10-25T08:46:09.708Z,99896.25
2017-10-25T08:48:36.243Z,99903.71
2017-10-25T08:51:02.681Z,99897.80
2017-10-25T08:53:29.421Z,99902.31
2017-10-25T08:55:56.390Z,99905.58
2017-10-25T08:58:22.851Z,99906.91
2017-10-25T09:00:49.648Z,99893.70
2017-10-25T09:03:16.091Z,99897.20
2017-10-25T09:05:42.722Z,99901.59
2017-10-25T09:08:09.052Z,99903.77
2017-10-25T09:10:35.895Z,99913.38
2017-10-25T09:13:02.333Z,99917.31
2017-10-25T09:15:28.766Z,99915.64
2017-10-25T09:17:55.200Z,99913.41
2017-10-25T09:20:21.942Z,99918.46
2017-10-25T09:22:48.384Z,99925.27
2017-10-25T09:25:14.747Z,99921.39
2017-10-25T09:27:41.144Z,99925.29
2017-10-25T09:30:07.578Z,99928.70
2017-10-25T09:32:34.115Z,99939.69
2017-10-25T09:35:01.234Z,99949.13
2017-10-25T09:37:27.704Z,99951.23
2017-10-25T09:39:54.138Z,99961.23
2017-10-25T09:42:21.493Z,99956.92
2017-10-25T09:44:49.985Z,99964.81
2017-10-25T09:47:16.521Z,99957.30
2017-10-25T09:49:43.156Z,99958.48
2017-10-25T09:52:09.793Z,99964.75
2017-10-25T09:54:36.228Z,99946.11
2017-10-25T09:57:03.075Z,99959.19
2017-10-25T09:59:29.507Z,99961.21
2017-10-25T10:01:55.942Z,99963.06
2017-10-25T10:04:22.379Z,99973.77
2017-10-25T10:06:49.122Z,99978.14
2017-10-25T10:09:15.554Z,99980.86
2017-10-25T10:11:41.989Z,99965.31
2017-10-25T10:14:08.730Z,99961.06
2017-10-25T10:16:35.275Z,99977.00
2017-10-25T10:19:01.703Z,99993.70
2017-10-25T10:21:28.079Z,99987.28
2017-10-25T10:23:54.781Z,99975.38
2017-10-25T10:26:21.416Z,99975.84
2017-10-25T10:28:47.850Z,99983.41
2017-10-25T10:31:14.224Z,99982.39
2017-10-25T10:33:40.929Z,99975.61
2017-10-25T10:36:07.361Z,99980.78
2017-10-25T10:38:33.794Z,99982.72
2017-10-25T10:41:00.234Z,99981.00
2017-10-25T10:43:26.768Z,99985.16
2017-10-25T10:45:53.611Z,99983.67
2017-10-25T10:48:20.068Z,99983.78
2017-10-25T10:50:46.456Z,99990.84
2017-10-25T10:53:12.907Z,99984.43
2017-10-25T10:55:39.657Z,99986.77
2017-10-25T10:58:06.395Z,99994.06
2017-10-25T11:00:32.982Z,99994.75
2017-10-25T11:02:59.984Z,100002.83
2017-10-25T11:05:26.624Z,99999.33
2017-10-25T11:07:54.155Z,99994.98
2017-10-25T11:10:21.935Z,99998.27
2017-10-25T11:12:48.568Z,99997.53
2017-10-25T11:15:15.053Z,99999.05
2017-10-25T11:17:41.563Z,99997.48
2017-10-25T11:20:08.550Z,99999.83
2017-10-25T11:22:35.047Z,100000.39
2017-10-25T11:25:01.481Z,100003.03
2017-10-25T11:27:28.340Z,100002.47
2017-10-25T11:29:54.760Z,99992.87
2017-10-25T11:32:21.196Z,99996.33
2017-10-25T11:34:48.448Z,99989.67
2017-10-25T11:37:15.100Z,99998.82
2017-10-25T11:39:41.608Z,99996.45
2017-10-25T11:42:08.375Z,99991.29
2017-10-25T11:44:35.110Z,100006.16
2017-10-25T11:47:01.708Z,100006.42
2017-10-25T11:49:28.696Z,100003.37
2017-10-25T11:51:55.021Z,100005.30
2017-10-25T11:54:21.771Z,100011.17
2017-10-25T11:56:48.615Z,100012.50
2017-10-25T11:59:15.152Z,100016.84
2017-10-25T12:01:41.616Z,100020.44
2017-10-25T12:04:08.226Z,100019.34
2017-10-25T12:06:34.663Z,100020.00
2017-10-25T12:09:01.009Z,100019.59
2017-10-25T12:11:29.071Z,100029.73
2017-10-25T12:13:56.093Z,100025.54
2017-10-25T12:16:22.540Z,100025.22
2017-10-25T12:18:48.885Z,100000.48
2017-10-25T12:21:15.726Z,100022.42
2017-10-25T12:23:42.264Z,100014.84
2017-10-25T12:26:08.699Z,100020.72
2017-10-25T12:28:35.648Z,100021.16
2017-10-25T12:31:02.185Z,100024.91
2017-10-25T12:33:29.027Z,100027.05
2017-10-25T12:35:56.031Z,100026.11
2017-10-25T12:38:24.220Z,100028.44
2017-10-25T12:40:50.994Z,100031.34
2017-10-25T12:43:17.838Z,100027.53
2017-10-25T12:45:44.273Z,100033.34
2017-10-25T12:48:10.877Z,100029.41
2017-10-25T12:50:37.551Z,100027.79
2017-10-25T12:53:04.095Z,100038.69
2017-10-25T12:55:30.496Z,100038.98
2017-10-25T12:57:57.331Z,100038.65
2017-10-25T13:00:23.943Z,100051.16
2017-10-25T13:02:50.752Z,100046.39
2017-10-25T13:05:17.491Z,100050.52
2017-10-25T13:07:44.234Z,100056.48
2017-10-25T13:10:10.990Z,100058.06
2017-10-25T13:12:38.024Z,100051.09
2017-10-25T13:15:04.397Z,100054.11
2017-10-25T13:17:30.869Z,100056.73
2017-10-25T13:19:57.712Z,100057.18
2017-10-25T13:22:24.276Z,100052.12
2017-10-25T13:24:50.835Z,100051.41
2017-10-25T13:27:17.763Z,100059.12
2017-10-25T13:29:44.300Z,100054.48
2017-10-25T13:32:10.839Z,100052.98
2017-10-25T13:34:37.782Z,100055.52
2017-10-25T13:37:04.211Z,100061.58
2017-10-25T13:39:30.650Z,100056.20
2017-10-25T13:41:57.494Z,100052.53
2017-10-25T13:44:24.105Z,100052.25
2017-10-25T13:46:50.874Z,100056.44
2017-10-25T13:49:17.310Z,100058.30
2017-10-25T13:51:44.360Z,100060.63
2017-10-25T13:54:11.054Z,100059.98
2017-10-25T13:56:37.537Z,100050.41
2017-10-25T13:59:04.176Z,100062.12
2017-10-25T14:01:30.579Z,100060.41
2017-10-25T14:03:57.046Z,100058.51
2017-10-25T14:06:23.686Z,100060.77
2017-10-25T14:08:50.650Z,100056.80
2017-10-25T14:11:17.074Z,100058.69
2017-10-25T14:13:44.003Z,100057.17
2017-10-25T14:16:11.472Z,100054.69
2017-10-25T14:18:37.906Z,100058.66
2017-10-25T14:21:04.955Z,100056.57
2017-10-25T14:23:31.707Z,100057.22
2017-10-25T14:25:58.141Z,100062.36
2017-10-25T14:28:24.567Z,100065.87
2017-10-25T14:30:51.006Z,100057.18
2017-10-25T14:33:17.848Z,100061.61
2017-10-25T14:35:44.282Z,100074.95
2017-10-25T14:38:10.716Z,100077.08
2017-10-25T14:40:37.459Z,100080.04
2017-10-25T14:43:03.995Z,100077.00
2017-10-25T14:45:30.399Z,100083.98
2017-10-25T14:47:57.274Z,100078.12
2017-10-25T14:50:23.825Z,100082.78
2017-10-25T14:52:50.246Z,100081.45
2017-10-25T14:55:16.689Z,100081.08
2017-10-25T14:57:43.108Z,100082.63
2017-10-25T15:00:10.574Z,100091.55
2017-10-25T15:02:37.010Z,100090.30
2017-10-25T15:05:03.445Z,100089.38
2017-10-25T15:07:30.132Z,100091.64
2017-10-25T15:09:57.541Z,100097.00
2017-10-25T15:12:23.977Z,100092.66
2017-10-25T15:14:50.829Z,100097.13
2017-10-25T15:17:17.256Z,100090.92
2017-10-25T15:19:43.691Z,100096.02
2017-10-25T15:22:10.842Z,100100.12
2017-10-25T15:24:37.277Z,100103.79
2017-10-25T15:27:04.540Z,100102.59
2017-10-25T15:29:30.965Z,100108.41
2017-10-25T15:31:57.490Z,100111.00
2017-10-25T15:34:23.941Z,100103.66
2017-10-25T15:36:50.380Z,100113.41
2017-10-25T15:39:16.805Z,100120.52
2017-10-25T15:41:43.240Z,100125.36
2017-10-25T15:44:10.467Z,100121.34
2017-10-25T15:46:36.948Z,100123.52
2017-10-25T15:49:03.364Z,100124.75
2017-10-25T15:51:29.799Z,100129.19
2017-10-25T15:53:56.263Z,100132.25
2017-10-25T15:56:22.669Z,100136.62
2017-10-25T15:58:49.104Z,100132.09
2017-10-25T16:01:16.296Z,100138.06
2017-10-25T16:03:42.639Z,100145.22
2017-10-25T16:06:09.133Z,100145.50
2017-10-25T16:08:35.559Z,100140.92
2017-10-25T16:11:02.003Z,100132.47
2017-10-25T16:13:28.438Z,100154.55
2017-10-25T16:15:54.864Z,100147.02
2017-10-25T16:18:22.027Z,100150.34
2017-10-25T16:20:48.451Z,100160.73
2017-10-25T16:23:14.884Z,100160.98
2017-10-25T16:25:41.421Z,100160.56
2017-10-25T16:28:07.856Z,100159.67
2017-10-25T16:30:34.292Z,100154.53
2017-10-25T16:33:00.727Z,100159.26
2017-10-25T16:35:27.979Z,100164.38
2017-10-25T16:37:54.416Z,100163.00
2017-10-25T16:40:20.849Z,100169.02
2017-10-25T16:42:47.285Z,100169.34
2017-10-25T16:45:13.720Z,100171.79
2017-10-25T16:47:40.128Z,100167.31
2017-10-25T16:50:06.589Z,100171.66
2017-10-25T16:52:33.739Z,100173.83
2017-10-25T16:55:00.175Z,100181.27
2017-10-25T16:57:26.610Z,100175.03
2017-10-25T16:59:52.942Z,100177.30
2017-10-25T17:02:19.479Z,100178.22
2017-10-25T17:04:45.918Z,100176.28
2017-10-25T17:07:12.320Z,100172.63
2017-10-25T17:09:39.507Z,100172.13
2017-10-25T17:12:05.934Z,100176.60
2017-10-25T17:14:32.308Z,100175.17
2017-10-25T17:16:58.710Z,100172.26
2017-10-25T17:19:25.136Z,100172.86
2017-10-25T17:21:51.574Z,100171.01
2017-10-25T17:24:18.014Z,100174.42
2017-10-25T17:26:45.166Z,100177.90
2017-10-25T17:29:11.696Z,100179.28
2017-10-25T17:31:38.129Z,100176.92
2017-10-25T17:34:04.574Z,100172.17
2017-10-25T17:36:31.000Z,100175.63
2017-10-25T17:38:57.433Z,100172.34
2017-10-25T17:41:23.877Z,100173.88
2017-10-25T17:43:51.033Z,100179.20
2017-10-25T17:46:17.472Z,100170.73
2017-10-25T17:48:43.890Z,100175.31
2017-10-25T17:51:10.260Z,100165.19
2017-10-25T17:53:36.657Z,100176.88
2017-10-25T17:56:03.093Z,100172.11
2017-10-25T17:58:29.527Z,100175.63
2017-10-25T18:00:56.665Z,100180.53
2017-10-25T18:03:23.114Z,100176.28
2017-10-25T18:05:49.547Z,100180.16
2017-10-25T18:08:15.969Z,100184.82
2017-10-25T18:10:42.420Z,100189.22
2017-10-25T18:13:08.853Z,100186.95
2017-10-25T18:15:35.300Z,100191.20
2017-10-25T18:18:02.548Z,100186.63
2017-10-25T18:20:28.973Z,100191.72
2017-10-25T18:22:55.409Z,100194.26
2017-10-25T18:25:21.844Z,100197.86
2017-10-25T18:27:48.280Z,100199.39
2017-10-25T18:30:14.713Z,100192.04
2017-10-25T18:32:41.148Z,100196.43
2017-10-25T18:35:07.607Z,100198.38
2017-10-25T18:37:34.018Z,100200.91
2017-10-25T18:40:00.467Z,100200.13
2017-10-25T18:42:26.886Z,100202.58
2017-10-25T18:44:53.322Z,100201.27
2017-10-25T18:47:19.756Z,100202.10
2017-10-25T18:49:46.916Z,100207.80
2017-10-25T18:52:13.452Z,100204.33
2017-10-25T18:54:40.294Z,100205.11
2017-10-25T18:57:12.001Z,100209.09
2017-10-25T18:59:38.483Z,100205.40
2017-10-25T19:04:42.003Z,100202.53
2017-10-25T19:07:08.446Z,100210.58
2017-10-25T19:09:34.883Z,100212.05
2017-10-25T19:12:01.308Z,100208.17
2017-10-25T19:14:27.745Z,100207.33
2017-10-25T19:16:54.176Z,100205.53
2017-10-25T19:19:20.612Z,100214.00
2017-10-25T19:21:47.054Z,100208.53
2017-10-25T19:24:13.480Z,100201.38
2017-10-25T19:26:39.932Z,100205.44
2017-10-25T19:29:06.308Z,100193.60
2017-10-25T19:31:32.791Z,100205.02
2017-10-25T19:33:59.936Z,100194.30
2017-10-25T19:36:26.380Z,100195.31
2017-10-25T19:38:52.806Z,100191.80
2017-10-25T19:41:19.249Z,100194.39
2017-10-25T19:43:45.671Z,100190.51
2017-10-25T19:46:12.111Z,100191.44
2017-10-25T19:48:38.555Z,100193.97
2017-10-25T19:51:05.807Z,100191.24
2017-10-25T19:53:32.243Z,100187.91
2017-10-25T19:55:58.669Z,100194.75
2017-10-25T19:58:25.111Z,100195.13
2017-10-25T20:00:51.640Z,100193.10
2017-10-25T20:03:18.075Z,100193.34
2017-10-25T20:05:44.633Z,100191.57
2017-10-25T20:08:11.865Z,100188.84
2017-10-25T20:10:38.240Z,100184.95
2017-10-25T20:13:04.632Z,100186.62
2017-10-25T20:15:31.076Z,100181.53
2017-10-25T20:17:57.510Z,100186.48
2017-10-25T20:20:23.937Z,100185.92
2017-10-25T20:22:50.372Z,100185.97
2017-10-25T20:25:17.522Z,100188.45
2017-10-25T20:27:43.958Z,100182.39
2017-10-25T20:30:10.392Z,100188.86
2017-10-25T20:32:36.827Z,100182.67
2017-10-25T20:35:03.261Z,100188.55
2017-10-25T20:37:29.705Z,100183.74
2017-10-25T20:39:56.131Z,100181.58
2017-10-25T20:42:23.487Z,100184.72
2017-10-25T20:44:49.923Z,100189.63
2017-10-25T20:47:16.358Z,100184.32
2017-10-25T20:49:42.800Z,100183.63
2017-10-25T20:52:09.228Z,100182.25
2017-10-25T20:54:35.667Z,100181.31
2017-10-25T20:57:02.099Z,100189.30
2017-10-25T20:59:29.247Z,100193.84
2017-10-25T21:01:55.691Z,100183.94
2017-10-25T21:04:22.117Z,100196.88
2017-10-25T21:06:48.560Z,100194.75
2017-10-25T21:09:14.986Z,100200.91
2017-10-25T21:11:41.430Z,100204.06
2017-10-25T21:14:07.857Z,100214.78
2017-10-25T21:16:34.905Z,100210.98
2017-10-25T21:19:01.443Z,100206.69
2017-10-25T21:21:27.877Z,100212.92
2017-10-25T21:23:54.321Z,100212.97
2017-10-25T21:26:20.763Z,100218.94
2017-10-25T21:28:47.181Z,100212.80
2017-10-25T21:31:13.719Z,100214.59
2017-10-25T21:33:40.775Z,100212.37
2017-10-25T21:36:07.202Z,100221.75
2017-10-25T21:38:33.637Z,100224.91
2017-10-25T21:41:00.110Z,100226.42
2017-10-25T21:43:26.587Z,100224.25
2017-10-25T21:45:53.043Z,100226.48
2017-10-25T21:48:19.539Z,100230.22
2017-10-25T21:50:46.707Z,100229.33
2017-10-25T21:53:13.169Z,100229.94
2017-10-25T21:55:39.617Z,100234.73
2017-10-25T21:58:06.036Z,100237.55
2017-10-25T22:00:32.479Z,100232.88
2017-10-25T22:02:58.914Z,100236.56
2017-10-25T22:05:25.442Z,100231.71
2017-10-25T22:07:52.595Z,100228.72
2017-10-25T22:10:19.037Z,100225.06
2017-10-25T22:12:45.472Z,100219.33
2017-10-25T22:15:11.908Z,100216.37
2017-10-25T22:17:38.321Z,100225.11
2017-10-25T22:20:04.774Z,100221.72
2017-10-25T22:22:31.177Z,100215.59
2017-10-25T22:24:58.355Z,100220.75
2017-10-25T22:27:24.790Z,100218.27
2017-10-25T22:29:51.226Z,100209.90
2017-10-25T22:32:17.772Z,100210.20
2017-10-25T22:34:44.197Z,100213.87
2017-10-25T22:37:10.630Z,100217.14
2017-10-25T22:39:37.066Z,100217.56
2017-10-25T22:42:04.227Z,100214.55
2017-10-25T22:44:30.652Z,100218.70
2017-10-25T22:46:57.087Z,100222.89
2017-10-25T22:49:23.520Z,100216.97
2017-10-25T22:51:49.959Z,100217.05
2017-10-25T22:54:16.380Z,100225.00
2017-10-25T22:56:42.829Z,100225.67
2017-10-25T22:59:10.081Z,100223.64
2017-10-25T23:01:36.515Z,100216.27
2017-10-25T23:04:02.949Z,100216.45
2017-10-25T23:06:29.392Z,100209.05
2017-10-25T23:08:55.818Z,100207.81
2017-10-25T23:11:22.196Z,100209.52
2017-10-25T23:13:48.695Z,100202.16
2017-10-25T23:16:15.839Z,100204.06
2017-10-25T23:18:42.244Z,100195.90
2017-10-25T23:21:08.704Z,100195.98
2017-10-25T23:23:35.148Z,100188.92
2017-10-25T23:26:01.623Z,100193.48
2017-10-25T23:28:28.012Z,100188.60
2017-10-25T23:30:54.456Z,100187.52
2017-10-25T23:33:21.604Z,100182.87
2017-10-25T23:35:48.060Z,100185.16
2017-10-25T23:38:14.477Z,100179.63
2017-10-25T23:40:40.905Z,100175.92
2017-10-25T23:43:07.337Z,100165.34
2017-10-25T23:45:33.772Z,100160.12
2017-10-25T23:48:00.208Z,100163.36
2017-10-25T23:50:27.360Z,100164.40
2017-10-25T23:52:53.793Z,100160.03
2017-10-25T23:55:20.228Z,100158.94
2017-10-25T23:57:46.664Z,100156.34
